createdAt,value
2017-08-16T00:01:17.733Z,99.60
2017-08-16T00:03:43.765Z,99.50
2017-08-16T00:06:09.805Z,99.60
2017-08-16T00:08:35.825Z,99.40
2017-08-16T00:11:02.616Z,99.80
2017-08-16T00:13:28.628Z,99.50
2017-08-16T00:15:54.668Z,99.40
2017-08-16T00:18:20.685Z,99.40
2017-08-16T00:20:47.461Z,99.40
2017-08-16T00:23:13.480Z,99.30
2017-08-16T00:25:39.498Z,99.50
2017-08-16T00:28:05.518Z,99.70
2017-08-16T00:30:31.544Z,99.60
2017-08-16T00:32:58.316Z,99.10
2017-08-16T00:35:24.350Z,99.10
2017-08-16T00:37:50.359Z,99.10
2017-08-16T00:40:16.377Z,99.20
2017-08-16T00:42:42.401Z,99.40
2017-08-16T00:45:08.420Z,99.50
2017-08-16T00:47:34.449Z,99.60
2017-08-16T00:50:00.468Z,99.60
2017-08-16T00:52:26.513Z,99.30
2017-08-16T00:54:52.557Z,99.30
2017-08-16T00:57:19.297Z,99.30
2017-08-16T00:59:45.317Z,99.20
2017-08-16T01:02:11.329Z,99.10
2017-08-16T01:04:37.358Z,99.30
2017-08-16T01:07:03.408Z,99.20
2017-08-16T01:09:29.481Z,99.10
2017-08-16T01:11:55.848Z,98.90
2017-08-16T01:14:22.613Z,99.20
2017-08-16T01:16:48.625Z,99.20
2017-08-16T01:19:14.648Z,98.90
2017-08-16T01:21:40.664Z,99.20
2017-08-16T01:24:06.677Z,99.30
2017-08-16T01:26:32.705Z,99.30
2017-08-16T01:28:59.465Z,99.40
2017-08-16T01:31:25.485Z,99.40
2017-08-16T01:33:51.492Z,99.50
2017-08-16T01:36:17.529Z,99.50
2017-08-16T01:38:43.537Z,99.30
2017-08-16T01:41:09.561Z,99.10
2017-08-16T01:43:35.584Z,99.20
2017-08-16T01:46:02.357Z,99.20
2017-08-16T01:48:28.368Z,99.20
2017-08-16T01:50:54.398Z,99.40
2017-08-16T01:53:21.176Z,99.40
2017-08-16T01:55:47.181Z,99.40
2017-08-16T01:58:13.185Z,99.40
2017-08-16T02:00:39.205Z,99.70
2017-08-16T02:03:05.225Z,99.70
2017-08-16T02:05:31.237Z,99.80
2017-08-16T02:07:57.257Z,99.70
2017-08-16T02:10:23.280Z,99.70
2017-08-16T02:12:49.304Z,99.60
2017-08-16T02:15:15.306Z,99.70
2017-08-16T02:17:41.339Z,99.40
2017-08-16T02:20:08.089Z,99.50
2017-08-16T02:22:34.120Z,99.40
2017-08-16T02:25:00.136Z,99.40
2017-08-16T02:27:26.192Z,99.40
2017-08-16T02:29:52.997Z,99.30
2017-08-16T02:32:19.019Z,99.30
2017-08-16T02:34:45.035Z,99.50
2017-08-16T02:37:11.050Z,99.50
2017-08-16T02:39:37.116Z,99.60
2017-08-16T02:42:03.126Z,99.30
2017-08-16T02:44:29.241Z,99.40
2017-08-16T02:46:55.262Z,99.20
2017-08-16T02:49:21.287Z,99.50
2017-08-16T02:51:48.041Z,99.30
2017-08-16T02:54:14.211Z,99.30
2017-08-16T02:56:40.976Z,99.00
2017-08-16T02:59:06.989Z,99.00
2017-08-16T03:01:33.008Z,99.30
2017-08-16T03:03:59.013Z,99.40
2017-08-16T03:06:25.032Z,99.50
2017-08-16T03:08:51.037Z,99.40
2017-08-16T03:11:17.061Z,99.30
2017-08-16T03:13:43.077Z,99.60
2017-08-16T03:16:09.089Z,99.30
2017-08-16T03:18:35.097Z,99.40
2017-08-16T03:21:01.121Z,99.30
2017-08-16T03:23:27.140Z,99.10
2017-08-16T03:25:53.910Z,99.00
2017-08-16T03:28:19.944Z,99.00
2017-08-16T03:30:45.969Z,99.00
2017-08-16T03:33:12.729Z,99.00
2017-08-16T03:35:38.726Z,99.00
2017-08-16T03:38:04.736Z,98.70
2017-08-16T03:40:30.749Z,98.80
2017-08-16T03:42:56.761Z,99.00
2017-08-16T03:45:22.774Z,98.90
2017-08-16T03:47:48.792Z,99.00
2017-08-16T03:50:14.796Z,99.10
2017-08-16T03:52:40.816Z,99.10
2017-08-16T03:55:06.825Z,99.00
2017-08-16T03:57:32.845Z,99.00
2017-08-16T03:59:58.889Z,99.00
2017-08-16T04:02:24.919Z,99.00
2017-08-16T04:04:50.945Z,98.90
2017-08-16T04:07:16.974Z,99.10
2017-08-16T04:09:42.992Z,99.10
2017-08-16T04:12:09.005Z,99.10
2017-08-16T04:14:35.036Z,99.10
2017-08-16T04:17:01.073Z,99.00
2017-08-16T04:19:27.094Z,99.10
2017-08-16T04:21:53.108Z,99.20
2017-08-16T04:24:19.136Z,99.00
2017-08-16T04:26:45.148Z,99.00
2017-08-16T04:29:11.172Z,99.00
2017-08-16T04:31:37.184Z,98.90
2017-08-16T04:34:03.218Z,99.00
2017-08-16T04:36:29.237Z,98.80
2017-08-16T04:38:55.253Z,98.80
2017-08-16T04:41:21.289Z,98.80
2017-08-16T04:43:47.296Z,98.80
2017-08-16T04:46:13.316Z,98.90
2017-08-16T04:48:39.332Z,99.00
2017-08-16T04:51:05.365Z,99.00
2017-08-16T04:53:31.388Z,98.80
2017-08-16T04:55:57.437Z,98.70
2017-08-16T04:58:23.444Z,98.70
2017-08-16T05:00:49.468Z,98.80
2017-08-16T05:03:15.485Z,99.00
2017-08-16T05:05:41.513Z,98.70
2017-08-16T05:08:07.529Z,98.60
2017-08-16T05:10:34.284Z,98.50
2017-08-16T05:13:00.342Z,98.40
2017-08-16T05:15:26.362Z,98.30
2017-08-16T05:17:53.125Z,98.40
2017-08-16T05:20:19.142Z,98.40
2017-08-16T05:22:45.175Z,98.50
2017-08-16T05:25:11.192Z,98.30
2017-08-16T05:27:37.217Z,98.50
2017-08-16T05:30:03.978Z,98.30
2017-08-16T05:32:30.028Z,98.30
2017-08-16T05:34:56.049Z,98.20
2017-08-16T05:37:22.081Z,97.80
2017-08-16T05:39:48.861Z,97.90
2017-08-16T05:42:14.897Z,97.90
2017-08-16T05:44:40.916Z,97.80
2017-08-16T05:47:07.694Z,98.00
2017-08-16T05:49:33.761Z,98.00
2017-08-16T05:52:00.528Z,97.90
2017-08-16T05:54:26.573Z,97.90
2017-08-16T05:56:52.588Z,98.10
2017-08-16T05:59:18.598Z,98.20
2017-08-16T06:01:45.362Z,97.90
2017-08-16T06:04:11.406Z,97.90
2017-08-16T06:06:37.445Z,97.90
2017-08-16T06:09:03.466Z,97.80
2017-08-16T06:11:30.216Z,97.40
2017-08-16T06:13:56.228Z,97.40
2017-08-16T06:16:22.265Z,97.90
2017-08-16T06:18:48.292Z,98.10
2017-08-16T06:21:14.318Z,98.20
2017-08-16T06:23:40.349Z,97.40
2017-08-16T06:26:06.364Z,97.10
2017-08-16T06:28:32.371Z,96.40
2017-08-16T06:30:58.411Z,97.10
2017-08-16T06:33:24.434Z,97.60
2017-08-16T06:35:50.467Z,97.30
2017-08-16T06:38:17.237Z,96.70
2017-08-16T06:40:43.262Z,96.70
2017-08-16T06:43:16.317Z,96.70
2017-08-16T06:45:42.334Z,96.30
2017-08-16T06:48:08.360Z,97.10
2017-08-16T06:50:34.379Z,96.60
2017-08-16T06:53:00.409Z,96.30
2017-08-16T06:55:26.445Z,96.20
2017-08-16T06:57:52.492Z,96.10
2017-08-16T07:00:18.509Z,96.40
2017-08-16T07:02:44.569Z,96.10
2017-08-16T07:05:10.591Z,95.90
2017-08-16T07:07:36.604Z,96.70
2017-08-16T07:10:02.637Z,96.90
2017-08-16T07:12:28.661Z,95.80
2017-08-16T07:14:54.698Z,95.40
2017-08-16T07:17:20.709Z,95.10
2017-08-16T07:19:46.733Z,94.20
2017-08-16T07:22:12.758Z,94.50
2017-08-16T07:24:38.795Z,94.60
2017-08-16T07:27:04.817Z,94.70
2017-08-16T07:29:30.858Z,95.10
2017-08-16T07:31:56.881Z,94.40
2017-08-16T07:34:22.903Z,94.20
2017-08-16T07:36:48.916Z,94.30
2017-08-16T07:39:14.917Z,93.20
2017-08-16T07:41:40.940Z,94.50
2017-08-16T07:44:06.960Z,93.30
2017-08-16T07:46:32.990Z,93.00
2017-08-16T07:48:59.011Z,92.50
2017-08-16T07:51:25.033Z,92.90
2017-08-16T07:53:51.106Z,92.50
2017-08-16T07:56:17.156Z,93.50
2017-08-16T07:58:43.165Z,94.60
2017-08-16T08:01:09.184Z,93.40
2017-08-16T08:03:35.244Z,92.80
2017-08-16T08:06:02.008Z,93.60
2017-08-16T08:08:28.024Z,93.40
2017-08-16T08:10:54.041Z,93.90
2017-08-16T08:13:20.065Z,94.00
2017-08-16T08:15:46.081Z,93.40
2017-08-16T08:18:12.129Z,93.20
2017-08-16T08:20:38.869Z,93.70
2017-08-16T08:23:04.884Z,94.00
2017-08-16T08:25:30.896Z,93.70
2017-08-16T08:27:56.937Z,92.80
2017-08-16T08:30:22.944Z,93.20
2017-08-16T08:32:49.003Z,93.10
2017-08-16T08:35:15.026Z,94.20
2017-08-16T08:37:41.050Z,92.80
2017-08-16T08:40:07.076Z,93.00
2017-08-16T08:42:33.096Z,92.40
2017-08-16T08:44:59.130Z,92.30
2017-08-16T08:47:25.174Z,92.50
2017-08-16T08:49:51.226Z,91.60
2017-08-16T08:52:17.249Z,91.00
2017-08-16T08:54:43.281Z,91.20
2017-08-16T08:57:09.304Z,93.30
2017-08-16T08:59:35.336Z,90.30
2017-08-16T09:02:01.364Z,89.00
2017-08-16T09:04:27.410Z,89.10
2017-08-16T09:06:53.431Z,86.70
2017-08-16T09:09:19.440Z,89.10
2017-08-16T09:11:45.461Z,89.10
2017-08-16T09:14:11.470Z,90.10
2017-08-16T09:16:37.507Z,89.10
2017-08-16T09:19:03.536Z,87.10
2017-08-16T09:21:29.573Z,84.60
2017-08-16T09:23:55.594Z,83.10
2017-08-16T09:26:21.615Z,82.80
2017-08-16T09:28:47.625Z,86.50
2017-08-16T09:31:13.647Z,83.90
2017-08-16T09:33:54.628Z,83.80
2017-08-16T09:36:20.663Z,82.20
2017-08-16T09:38:46.664Z,90.70
2017-08-16T09:41:13.432Z,78.60
2017-08-16T09:43:39.489Z,78.40
2017-08-16T09:46:05.504Z,88.40
2017-08-16T09:48:32.281Z,65.40
2017-08-16T09:50:58.304Z,65.10
2017-08-16T09:53:24.339Z,63.40
2017-08-16T09:55:50.345Z,57.30
2017-08-16T09:58:16.377Z,53.40
2017-08-16T10:00:43.164Z,51.30
2017-08-16T10:03:09.197Z,51.20
2017-08-16T10:05:35.221Z,53.40
2017-08-16T10:08:01.237Z,56.30
2017-08-16T10:10:27.269Z,57.40
2017-08-16T10:12:53.313Z,55.80
2017-08-16T10:15:19.344Z,53.90
2017-08-16T10:17:46.109Z,51.90
2017-08-16T10:20:12.176Z,51.80
2017-08-16T10:22:38.992Z,43.70
2017-08-16T10:25:05.028Z,43.60
2017-08-16T10:27:31.042Z,47.20
2017-08-16T10:29:57.065Z,45.10
2017-08-16T10:32:23.097Z,47.60
2017-08-16T10:34:49.113Z,50.60
2017-08-16T10:37:30.101Z,52.60
2017-08-16T10:39:56.109Z,50.90
2017-08-16T10:42:22.872Z,46.10
2017-08-16T10:44:48.901Z,45.50
2017-08-16T10:47:14.937Z,37.40
2017-08-16T10:49:41.711Z,45.30
2017-08-16T10:52:07.756Z,45.30
2017-08-16T10:54:33.793Z,46.10
2017-08-16T10:56:59.804Z,49.20
2017-08-16T10:59:26.596Z,47.00
2017-08-16T11:01:52.600Z,42.00
2017-08-16T11:04:18.625Z,41.90
2017-08-16T11:06:44.637Z,41.40
2017-08-16T11:09:10.666Z,39.60
2017-08-16T11:11:37.441Z,43.60
2017-08-16T11:14:03.464Z,43.60
2017-08-16T11:16:29.477Z,44.20
2017-08-16T11:18:55.508Z,47.80
2017-08-16T11:21:21.520Z,50.50
2017-08-16T11:23:48.301Z,41.60
2017-08-16T11:26:14.337Z,41.90
2017-08-16T11:28:40.345Z,41.20
2017-08-16T11:31:06.372Z,37.40
2017-08-16T11:33:32.388Z,34.70
2017-08-16T11:35:58.412Z,37.50
2017-08-16T11:38:24.425Z,38.60
2017-08-16T11:40:50.436Z,40.50
2017-08-16T11:43:16.449Z,43.40
2017-08-16T11:45:42.480Z,41.70
2017-08-16T11:48:08.500Z,40.00
2017-08-16T11:50:34.532Z,34.30
2017-08-16T11:53:00.553Z,30.30
2017-08-16T11:55:27.322Z,32.40
2017-08-16T11:57:53.347Z,32.40
2017-08-16T12:00:19.367Z,34.00
2017-08-16T12:02:45.385Z,31.40
2017-08-16T12:05:11.408Z,32.40
2017-08-16T12:07:38.166Z,30.80
2017-08-16T12:10:04.200Z,30.60
2017-08-16T12:12:30.217Z,30.30
2017-08-16T12:14:56.245Z,30.60
2017-08-16T12:17:22.279Z,31.00
2017-08-16T12:19:48.293Z,31.20
2017-08-16T12:22:14.334Z,34.90
2017-08-16T12:24:55.345Z,36.00
2017-08-16T12:27:22.108Z,39.40
2017-08-16T12:29:48.117Z,39.30
2017-08-16T12:32:14.129Z,37.70
2017-08-16T12:34:40.332Z,35.60
2017-08-16T12:37:06.361Z,36.40
2017-08-16T12:39:32.360Z,37.70
2017-08-16T12:41:58.380Z,40.70
2017-08-16T12:44:24.401Z,39.70
2017-08-16T12:46:50.445Z,36.40
2017-08-16T12:49:17.202Z,33.20
2017-08-16T12:51:43.231Z,33.20
2017-08-16T12:54:09.289Z,36.30
2017-08-16T12:56:35.331Z,34.40
2017-08-16T12:59:01.355Z,35.10
2017-08-16T13:01:27.365Z,34.20
2017-08-16T13:03:53.372Z,33.60
2017-08-16T13:06:19.404Z,32.00
2017-08-16T13:08:45.441Z,36.50
2017-08-16T13:11:11.471Z,34.70
2017-08-16T13:13:37.495Z,36.30
2017-08-16T13:16:03.501Z,34.50
2017-08-16T13:18:29.525Z,35.50
2017-08-16T13:20:55.545Z,36.00
2017-08-16T13:23:21.572Z,36.20
2017-08-16T13:25:48.350Z,37.20
2017-08-16T13:28:14.369Z,37.20
2017-08-16T13:30:40.389Z,33.80
2017-08-16T13:33:06.416Z,35.80
2017-08-16T13:35:32.424Z,37.20
2017-08-16T13:37:58.444Z,33.80
2017-08-16T13:40:25.229Z,30.30
2017-08-16T13:42:51.360Z,30.30
2017-08-16T13:45:17.408Z,31.00
2017-08-16T13:47:44.169Z,29.90
2017-08-16T13:50:10.201Z,30.00
2017-08-16T13:52:36.249Z,30.80
2017-08-16T13:55:02.364Z,28.20
2017-08-16T13:57:28.374Z,28.90
2017-08-16T13:59:54.392Z,31.80
2017-08-16T14:02:20.408Z,31.00
2017-08-16T14:04:46.425Z,31.50
2017-08-16T14:07:12.477Z,31.80
2017-08-16T14:09:39.719Z,27.50
2017-08-16T14:12:05.757Z,27.80
2017-08-16T14:14:31.808Z,27.90
2017-08-16T14:16:57.829Z,26.00
2017-08-16T14:19:23.848Z,28.10
2017-08-16T14:21:49.892Z,29.60
2017-08-16T14:24:15.914Z,27.50
2017-08-16T14:26:41.928Z,31.00
2017-08-16T14:29:07.960Z,31.90
2017-08-16T14:31:34.035Z,33.90
2017-08-16T14:34:00.062Z,33.70
2017-08-16T14:36:27.218Z,31.80
2017-08-16T14:38:53.324Z,32.30
2017-08-16T14:41:19.333Z,30.60
2017-08-16T14:43:45.613Z,28.80
2017-08-16T14:46:11.622Z,28.30
2017-08-16T14:48:37.650Z,28.60
2017-08-16T14:51:03.716Z,28.60
2017-08-16T14:53:30.489Z,28.80
2017-08-16T14:55:56.515Z,28.80
2017-08-16T14:58:22.532Z,28.80
2017-08-16T15:00:48.581Z,26.60
2017-08-16T15:03:14.602Z,30.00
2017-08-16T15:05:40.650Z,29.10
2017-08-16T15:08:06.668Z,28.80
2017-08-16T15:10:32.701Z,28.50
2017-08-16T15:12:58.723Z,25.20
2017-08-16T15:15:24.744Z,25.80
2017-08-16T15:17:50.760Z,27.00
2017-08-16T15:20:16.793Z,30.00
2017-08-16T15:22:42.836Z,27.40
2017-08-16T15:25:08.882Z,27.40
2017-08-16T15:27:34.896Z,27.80
2017-08-16T15:30:00.917Z,28.60
2017-08-16T15:32:26.928Z,27.80
2017-08-16T15:34:53.510Z,27.60
2017-08-16T15:37:19.613Z,28.10
2017-08-16T15:39:46.460Z,32.60
2017-08-16T15:42:12.480Z,32.60
2017-08-16T15:44:38.524Z,31.10
2017-08-16T15:47:19.501Z,31.10
2017-08-16T15:49:46.264Z,33.20
2017-08-16T15:52:12.273Z,33.10
2017-08-16T15:54:38.308Z,32.30
2017-08-16T15:57:04.320Z,33.60
2017-08-16T15:59:30.336Z,35.50
2017-08-16T16:01:56.340Z,32.90
2017-08-16T16:04:22.364Z,35.30
2017-08-16T16:06:48.384Z,38.60
2017-08-16T16:09:15.149Z,35.90
2017-08-16T16:11:56.168Z,35.90
2017-08-16T16:14:22.944Z,39.50
2017-08-16T16:16:48.977Z,39.50
2017-08-16T16:19:15.008Z,36.00
2017-08-16T16:21:41.085Z,37.50
2017-08-16T16:24:07.132Z,39.30
2017-08-16T16:26:33.165Z,43.30
2017-08-16T16:28:59.188Z,42.70
2017-08-16T16:31:25.257Z,42.90
2017-08-16T16:33:52.014Z,43.70
2017-08-16T16:36:18.025Z,43.80
2017-08-16T16:38:44.062Z,47.30
2017-08-16T16:41:10.073Z,45.30
2017-08-16T16:43:36.143Z,45.50
2017-08-16T16:46:02.189Z,47.20
2017-08-16T16:48:28.258Z,47.10
2017-08-16T16:53:32.840Z,47.20
2017-08-16T16:55:59.608Z,47.90
2017-08-16T16:58:25.652Z,48.60
2017-08-16T17:00:51.676Z,47.80
2017-08-16T17:03:17.704Z,46.30
2017-08-16T17:05:43.724Z,49.00
2017-08-16T17:08:09.744Z,49.10
2017-08-16T17:10:35.785Z,52.00
2017-08-16T17:13:01.812Z,50.10
2017-08-16T17:15:27.846Z,51.30
2017-08-16T17:17:54.598Z,51.30
2017-08-16T17:20:20.639Z,51.20
2017-08-16T17:22:46.677Z,50.40
2017-08-16T17:25:12.707Z,50.20
2017-08-16T17:27:38.781Z,52.20
2017-08-16T17:30:04.813Z,52.70
2017-08-16T17:32:31.604Z,52.40
2017-08-16T17:34:57.612Z,52.40
2017-08-16T17:37:23.640Z,51.20
2017-08-16T17:39:49.657Z,51.10
2017-08-16T17:42:15.687Z,53.70
2017-08-16T17:44:41.725Z,51.40
2017-08-16T17:47:07.751Z,53.70
2017-08-16T17:49:40.633Z,52.50
2017-08-16T17:52:07.405Z,53.10
2017-08-16T17:54:33.445Z,53.00
2017-08-16T17:56:59.467Z,54.30
2017-08-16T17:59:25.501Z,53.10
2017-08-16T18:01:51.509Z,53.40
2017-08-16T18:04:17.541Z,54.50
2017-08-16T18:06:43.557Z,55.80
2017-08-16T18:09:09.613Z,54.50
2017-08-16T18:11:36.794Z,55.50
2017-08-16T18:14:03.047Z,53.70
2017-08-16T18:16:29.080Z,54.90
2017-08-16T18:18:55.093Z,54.70
2017-08-16T18:21:21.113Z,56.30
2017-08-16T18:23:47.872Z,55.40
2017-08-16T18:26:13.880Z,55.40
2017-08-16T18:28:39.920Z,57.20
2017-08-16T18:31:05.928Z,55.90
2017-08-16T18:33:31.952Z,55.20
2017-08-16T18:35:57.977Z,56.90
2017-08-16T18:38:24.000Z,55.50
2017-08-16T18:40:50.760Z,55.80
2017-08-16T18:43:16.785Z,55.70
2017-08-16T18:45:42.808Z,56.00
2017-08-16T18:48:08.950Z,57.20
2017-08-16T18:50:34.978Z,56.40
2017-08-16T18:53:01.000Z,58.40
2017-08-16T18:55:27.047Z,57.30
2017-08-16T18:57:53.060Z,58.30
2017-08-16T19:00:19.077Z,58.60
2017-08-16T19:02:46.586Z,59.90
2017-08-16T19:05:12.737Z,59.90
2017-08-16T19:07:38.751Z,59.00
2017-08-16T19:10:04.765Z,59.60
2017-08-16T19:12:30.792Z,60.50
2017-08-16T19:14:56.825Z,59.40
2017-08-16T19:17:22.862Z,59.60
2017-08-16T19:19:48.901Z,59.50
2017-08-16T19:22:14.923Z,60.20
2017-08-16T19:24:40.960Z,60.50
2017-08-16T19:27:06.985Z,60.60
2017-08-16T19:29:32.997Z,61.30
2017-08-16T19:31:59.138Z,60.50
2017-08-16T19:34:25.891Z,61.40
2017-08-16T19:36:51.964Z,61.30
2017-08-16T19:39:17.982Z,62.20
2017-08-16T19:41:44.146Z,62.30
2017-08-16T19:44:10.156Z,63.30
2017-08-16T19:46:36.193Z,63.40
2017-08-16T19:49:02.242Z,62.60
2017-08-16T19:51:28.256Z,61.70
2017-08-16T19:53:54.277Z,61.80
2017-08-16T19:56:20.288Z,63.20
2017-08-16T19:58:46.309Z,63.70
2017-08-16T20:01:12.327Z,65.30
2017-08-16T20:03:38.340Z,65.00
2017-08-16T20:06:04.353Z,65.20
2017-08-16T20:08:30.377Z,64.30
2017-08-16T20:10:56.383Z,64.90
2017-08-16T20:13:22.412Z,64.90
2017-08-16T20:15:48.452Z,65.10
2017-08-16T20:18:14.473Z,64.50
2017-08-16T20:20:40.485Z,65.20
2017-08-16T20:23:06.644Z,65.30
2017-08-16T20:25:32.668Z,65.90
2017-08-16T20:27:58.680Z,66.30
2017-08-16T20:30:31.760Z,66.80
2017-08-16T20:32:57.792Z,67.70
2017-08-16T20:35:23.804Z,67.80
2017-08-16T20:37:49.832Z,69.00
2017-08-16T20:40:15.844Z,68.70
2017-08-16T20:42:42.616Z,69.00
2017-08-16T20:45:08.661Z,69.50
2017-08-16T20:47:34.722Z,69.50
2017-08-16T20:50:00.744Z,69.90
2017-08-16T20:52:26.749Z,70.40
2017-08-16T20:54:52.773Z,71.00
2017-08-16T20:57:18.798Z,71.90
2017-08-16T20:59:51.750Z,71.70
2017-08-16T21:02:17.774Z,72.30
2017-08-16T21:04:43.809Z,72.50
2017-08-16T21:07:09.821Z,73.10
2017-08-16T21:09:35.833Z,73.30
2017-08-16T21:12:01.853Z,74.50
2017-08-16T21:14:28.610Z,74.80
2017-08-16T21:16:54.616Z,74.70
2017-08-16T21:19:20.649Z,74.30
2017-08-16T21:21:46.681Z,74.10
2017-08-16T21:24:13.486Z,75.70
2017-08-16T21:26:39.508Z,75.60
2017-08-16T21:29:05.524Z,75.40
2017-08-16T21:31:31.545Z,75.20
2017-08-16T21:33:58.293Z,77.00
2017-08-16T21:36:24.318Z,76.80
2017-08-16T21:38:50.333Z,77.30
2017-08-16T21:41:16.365Z,77.20
2017-08-16T21:43:42.376Z,77.30
2017-08-16T21:46:08.404Z,77.30
2017-08-16T21:48:34.452Z,77.60
2017-08-16T21:51:00.497Z,78.00
2017-08-16T21:53:26.504Z,78.60
2017-08-16T21:55:52.529Z,78.90
2017-08-16T21:58:18.533Z,78.90
2017-08-16T22:00:44.584Z,79.10
2017-08-16T22:03:10.600Z,79.90
2017-08-16T22:05:36.646Z,80.30
2017-08-16T22:08:02.676Z,80.60
2017-08-16T22:10:28.697Z,80.60
2017-08-16T22:12:55.457Z,80.90
2017-08-16T22:15:21.482Z,80.90
2017-08-16T22:17:47.499Z,81.30
2017-08-16T22:20:13.509Z,80.70
2017-08-16T22:22:39.544Z,80.20
2017-08-16T22:25:06.308Z,80.20
2017-08-16T22:27:32.337Z,80.20
2017-08-16T22:29:58.349Z,81.00
2017-08-16T22:32:24.368Z,81.10
2017-08-16T22:34:50.389Z,81.70
2017-08-16T22:37:16.416Z,82.20
2017-08-16T22:39:42.421Z,82.70
2017-08-16T22:42:08.442Z,82.40
2017-08-16T22:44:34.466Z,83.70
2017-08-16T22:47:00.493Z,83.10
2017-08-16T22:49:26.509Z,83.20
2017-08-16T22:51:52.528Z,83.00
2017-08-16T22:54:18.542Z,84.20
2017-08-16T22:56:44.569Z,83.20
2017-08-16T22:59:10.676Z,84.30
2017-08-16T23:01:36.684Z,84.10
2017-08-16T23:04:02.713Z,83.70
2017-08-16T23:06:29.468Z,84.50
2017-08-16T23:08:55.489Z,84.50
2017-08-16T23:11:21.517Z,84.60
2017-08-16T23:13:47.574Z,83.80
2017-08-16T23:16:13.613Z,84.80
2017-08-16T23:18:39.629Z,84.90
2017-08-16T23:21:05.637Z,85.00
2017-08-16T23:23:31.656Z,85.20
2017-08-16T23:25:57.657Z,85.40
2017-08-16T23:28:23.697Z,85.00
2017-08-16T23:30:49.709Z,85.30
2017-08-16T23:33:16.480Z,85.50
2017-08-16T23:35:42.493Z,85.50
2017-08-16T23:38:08.514Z,85.40
2017-08-16T23:40:34.544Z,86.00
2017-08-16T23:43:00.568Z,85.90
2017-08-16T23:45:26.593Z,86.40
2017-08-16T23:47:53.366Z,86.10
2017-08-16T23:50:19.412Z,86.10
2017-08-16T23:52:45.424Z,86.90
2017-08-16T23:55:11.457Z,86.80
2017-08-16T23:57:37.481Z,86.50
